aviador You're here:

KMAW Decoded Metar

in
Report Time2017-08-06 08:35:00
UTC Time2017-08-22 22:24:06
Flight Rules Old
WindCalm
Visibility9999 m
Phenomena:N/A
Clouds:Scattered 050 Hf
Expected CloudBase > 1,200 ft AGL from Temp-Dew spread
CeilingNone
Temp20°C
Dew Point17°C (83% RH)
QNH1015 hPa
Raw Report
KMAW 060835Z AUTO 00000KT 10SM SCT050 20/17 A2996 RMK AO2=

Extra information for KMAW:More info

Social comments